首页
METAR-TAF:

METAR-TAF

机场 :

华沙肖邦机场

华沙, 波兰

纬度: 52-10N, 经度: 020-58E, 海拔: 106米

当前天气观测

该预报发布于32分钟前的08:00 UTC
风速4节,风向南转南东,在东南南转西南之间变化
温度 19°C
湿度 68%
气压 1010 hPa
能见度10公里或以上
1500米以下无云,无积雨云

METAR: EPWA 230800Z 16004KT 130V200 CAVOK 19/13 Q1010 NOSIG

时间: 10:32 (08:32 UTC)

预报

该预报发布于3小时和2分钟前的05:30 UTC
预报有效从23日的 06点(UTC)到 24日的 06点(UTC)
风速6节,风向东南
能见度10公里或以上
1500米以下无云,无积雨云
几率 40% :
短暂存在
从 23日的 22点(UTC)到 24日的 06点(UTC)
能見度: 3000
轻雾

TAF: EPWA 230530Z 2306/2406 14006KT CAVOK PROB40 TEMPO 2322/2406 3000 BR

超过4000个机场的气象观测和天气预报(METAR&TAF报告)。

可查询的气象台以黄色和红色小点在地图上表示。

将鼠标移到小点上方,可查看气象台名称。

然后点击查看天气观测和预报。

如需切换地图:点击带黑十字的绿色按钮放大地图;点击带横线的绿色按钮缩小地图;或者点击绿色箭头查看邻近地区的地图。


METAR-TAF: